sensor_id;sensor_type;location;lat;lon;timestamp;temperature;humidity
68578;SHT31;61668;45.388;11.784;2022-10-16T00:01:24;18.37;73.25
68578;SHT31;61668;45.388;11.784;2022-10-16T00:03:54;18.43;73.31
68578;SHT31;61668;45.388;11.784;2022-10-16T00:06:21;18.43;73.31
68578;SHT31;61668;45.388;11.784;2022-10-16T00:08:49;18.42;73.25
68578;SHT31;61668;45.388;11.784;2022-10-16T00:11:22;18.37;73.30
68578;SHT31;61668;45.388;11.784;2022-10-16T00:13:55;18.34;73.51
68578;SHT31;61668;45.388;11.784;2022-10-16T00:16:23;18.34;73.66
68578;SHT31;61668;45.388;11.784;2022-10-16T00:18:49;18.37;73.69
68578;SHT31;61668;45.388;11.784;2022-10-16T00:21:16;18.40;73.76
68578;SHT31;61668;45.388;11.784;2022-10-16T00:23:45;18.46;73.70
68578;SHT31;61668;45.388;11.784;2022-10-16T00:26:12;18.49;73.57
68578;SHT31;61668;45.388;11.784;2022-10-16T00:28:44;18.50;73.53
68578;SHT31;61668;45.388;11.784;2022-10-16T00:31:14;18.50;73.45
68578;SHT31;61668;45.388;11.784;2022-10-16T00:33:39;18.45;73.42
68578;SHT31;61668;45.388;11.784;2022-10-16T00:36:06;18.42;73.67
68578;SHT31;61668;45.388;11.784;2022-10-16T00:38:35;18.42;73.72
68578;SHT31;61668;45.388;11.784;2022-10-16T00:41:02;18.43;73.71
68578;SHT31;61668;45.388;11.784;2022-10-16T00:43:45;18.45;73.69
68578;SHT31;61668;45.388;11.784;2022-10-16T00:46:24;18.48;73.50
68578;SHT31;61668;45.388;11.784;2022-10-16T00:49:17;18.46;73.42
68578;SHT31;61668;45.388;11.784;2022-10-16T00:51:49;18.42;73.52
68578;SHT31;61668;45.388;11.784;2022-10-16T00:54:18;18.40;73.76
68578;SHT31;61668;45.388;11.784;2022-10-16T00:56:50;18.39;73.81
68578;SHT31;61668;45.388;11.784;2022-10-16T00:59:20;18.39;73.72
68578;SHT31;61668;45.388;11.784;2022-10-16T01:01:56;18.41;73.73
68578;SHT31;61668;45.388;11.784;2022-10-16T01:04:23;18.45;73.74
68578;SHT31;61668;45.388;11.784;2022-10-16T01:06:53;18.47;73.65
68578;SHT31;61668;45.388;11.784;2022-10-16T01:20:33;18.47;73.60
68578;SHT31;61668;45.388;11.784;2022-10-16T01:28:57;18.49;73.70
68578;SHT31;61668;45.388;11.784;2022-10-16T01:31:39;18.49;73.79
68578;SHT31;61668;45.388;11.784;2022-10-16T01:34:18;18.49;73.77
68578;SHT31;61668;45.388;11.784;2022-10-16T01:36:56;18.48;73.82
68578;SHT31;61668;45.388;11.784;2022-10-16T01:39:30;18.47;73.81
68578;SHT31;61668;45.388;11.784;2022-10-16T01:42:42;18.48;73.70
68578;SHT31;61668;45.388;11.784;2022-10-16T01:44:59;18.45;73.72
68578;SHT31;61668;45.388;11.784;2022-10-16T01:47:26;18.45;73.95
68578;SHT31;61668;45.388;11.784;2022-10-16T01:49:52;18.45;73.93
68578;SHT31;61668;45.388;11.784;2022-10-16T01:52:24;18.42;73.85
68578;SHT31;61668;45.388;11.784;2022-10-16T01:54:52;18.38;73.93
68578;SHT31;61668;45.388;11.784;2022-10-16T01:57:21;18.35;74.16
68578;SHT31;61668;45.388;11.784;2022-10-16T01:59:51;18.34;74.18
68578;SHT31;61668;45.388;11.784;2022-10-16T02:02:22;18.36;74.18
68578;SHT31;61668;45.388;11.784;2022-10-16T02:04:53;18.38;74.24
68578;SHT31;61668;45.388;11.784;2022-10-16T02:07:24;18.42;74.29
68578;SHT31;61668;45.388;11.784;2022-10-16T02:09:50;18.46;74.25
68578;SHT31;61668;45.388;11.784;2022-10-16T02:12:19;18.48;74.20
68578;SHT31;61668;45.388;11.784;2022-10-16T02:14:52;18.49;74.14
68578;SHT31;61668;45.388;11.784;2022-10-16T02:17:18;18.48;74.14
68578;SHT31;61668;45.388;11.784;2022-10-16T02:19:44;18.44;74.17
68578;SHT31;61668;45.388;11.784;2022-10-16T02:22:24;18.41;74.22
68578;SHT31;61668;45.388;11.784;2022-10-16T02:28:28;18.43;74.50
68578;SHT31;61668;45.388;11.784;2022-10-16T02:31:06;18.45;74.50
68578;SHT31;61668;45.388;11.784;2022-10-16T02:33:36;18.46;74.43
68578;SHT31;61668;45.388;11.784;2022-10-16T02:36:05;18.46;74.32
68578;SHT31;61668;45.388;11.784;2022-10-16T02:38:31;18.46;74.32
68578;SHT31;61668;45.388;11.784;2022-10-16T02:40:58;18.48;74.41
68578;SHT31;61668;45.388;11.784;2022-10-16T02:43:24;18.48;74.43
68578;SHT31;61668;45.388;11.784;2022-10-16T02:45:50;18.46;74.46
68578;SHT31;61668;45.388;11.784;2022-10-16T02:48:16;18.46;74.51
68578;SHT31;61668;45.388;11.784;2022-10-16T02:50:41;18.43;74.55
68578;SHT31;61668;45.388;11.784;2022-10-16T02:53:07;18.40;74.68
68578;SHT31;61668;45.388;11.784;2022-10-16T02:55:32;18.39;74.89
68578;SHT31;61668;45.388;11.784;2022-10-16T02:57:58;18.38;74.98
68578;SHT31;61668;45.388;11.784;2022-10-16T03:00:23;18.36;75.09
68578;SHT31;61668;45.388;11.784;2022-10-16T03:02:49;18.36;75.20
68578;SHT31;61668;45.388;11.784;2022-10-16T03:05:15;18.37;75.36
68578;SHT31;61668;45.388;11.784;2022-10-16T03:07:41;18.39;75.37
68578;SHT31;61668;45.388;11.784;2022-10-16T03:10:07;18.42;75.28
68578;SHT31;61668;45.388;11.784;2022-10-16T03:12:33;18.45;75.20
68578;SHT31;61668;45.388;11.784;2022-10-16T03:14:59;18.47;75.25
68578;SHT31;61668;45.388;11.784;2022-10-16T03:17:24;18.48;75.21
68578;SHT31;61668;45.388;11.784;2022-10-16T03:19:50;18.48;75.20
68578;SHT31;61668;45.388;11.784;2022-10-16T03:22:16;18.46;75.15
68578;SHT31;61668;45.388;11.784;2022-10-16T03:24:42;18.45;75.21
68578;SHT31;61668;45.388;11.784;2022-10-16T03:27:07;18.45;75.20
68578;SHT31;61668;45.388;11.784;2022-10-16T03:29:33;18.43;75.18
68578;SHT31;61668;45.388;11.784;2022-10-16T03:31:59;18.42;75.18
68578;SHT31;61668;45.388;11.784;2022-10-16T03:34:25;18.43;75.28
68578;SHT31;61668;45.388;11.784;2022-10-16T03:36:50;18.43;75.27
68578;SHT31;61668;45.388;11.784;2022-10-16T03:39:16;18.45;75.24
68578;SHT31;61668;45.388;11.784;2022-10-16T03:41:42;18.46;75.16
68578;SHT31;61668;45.388;11.784;2022-10-16T03:44:08;18.47;75.20
68578;SHT31;61668;45.388;11.784;2022-10-16T03:46:33;18.46;75.20
68578;SHT31;61668;45.388;11.784;2022-10-16T03:48:59;18.44;75.20
68578;SHT31;61668;45.388;11.784;2022-10-16T03:51:24;18.41;75.20
68578;SHT31;61668;45.388;11.784;2022-10-16T03:53:49;18.39;75.20
68578;SHT31;61668;45.388;11.784;2022-10-16T03:56:15;18.37;75.26
68578;SHT31;61668;45.388;11.784;2022-10-16T03:58:41;18.37;75.27
68578;SHT31;61668;45.388;11.784;2022-10-16T04:01:06;18.36;75.21
68578;SHT31;61668;45.388;11.784;2022-10-16T04:03:32;18.37;75.20
68578;SHT31;61668;45.388;11.784;2022-10-16T04:05:57;18.36;75.10
68578;SHT31;61668;45.388;11.784;2022-10-16T04:08:23;18.36;75.10
68578;SHT31;61668;45.388;11.784;2022-10-16T04:10:48;18.34;75.18
68578;SHT31;61668;45.388;11.784;2022-10-16T04:13:14;18.32;75.20
68578;SHT31;61668;45.388;11.784;2022-10-16T04:15:40;18.28;75.20
68578;SHT31;61668;45.388;11.784;2022-10-16T04:18:05;18.22;75.27
68578;SHT31;61668;45.388;11.784;2022-10-16T04:20:31;18.18;75.26
68578;SHT31;61668;45.388;11.784;2022-10-16T04:22:58;18.16;75.27
68578;SHT31;61668;45.388;11.784;2022-10-16T04:25:23;18.14;75.39
68578;SHT31;61668;45.388;11.784;2022-10-16T04:27:49;18.13;75.42
68578;SHT31;61668;45.388;11.784;2022-10-16T04:30:14;18.11;75.46
68578;SHT31;61668;45.388;11.784;2022-10-16T04:32:40;18.10;75.58
68578;SHT31;61668;45.388;11.784;2022-10-16T04:35:06;18.09;75.57
68578;SHT31;61668;45.388;11.784;2022-10-16T04:37:32;18.06;75.60
68578;SHT31;61668;45.388;11.784;2022-10-16T04:39:58;18.01;75.63
68578;SHT31;61668;45.388;11.784;2022-10-16T04:42:23;17.95;75.71
68578;SHT31;61668;45.388;11.784;2022-10-16T04:44:49;17.89;75.79
68578;SHT31;61668;45.388;11.784;2022-10-16T04:47:14;17.86;75.83
68578;SHT31;61668;45.388;11.784;2022-10-16T04:49:40;17.86;75.93
68578;SHT31;61668;45.388;11.784;2022-10-16T04:52:06;17.84;75.92
68578;SHT31;61668;45.388;11.784;2022-10-16T04:54:31;17.82;75.98
68578;SHT31;61668;45.388;11.784;2022-10-16T04:56:57;17.80;76.12
68578;SHT31;61668;45.388;11.784;2022-10-16T04:59:22;17.76;76.20
68578;SHT31;61668;45.388;11.784;2022-10-16T05:01:49;17.73;76.20
68578;SHT31;61668;45.388;11.784;2022-10-16T05:04:15;17.68;76.22
68578;SHT31;61668;45.388;11.784;2022-10-16T05:06:41;17.65;76.34
68578;SHT31;61668;45.388;11.784;2022-10-16T05:09:07;17.62;76.45
68578;SHT31;61668;45.388;11.784;2022-10-16T05:11:33;17.59;76.57
68578;SHT31;61668;45.388;11.784;2022-10-16T05:13:59;17.57;76.70
68578;SHT31;61668;45.388;11.784;2022-10-16T05:16:25;17.54;76.82
68578;SHT31;61668;45.388;11.784;2022-10-16T05:18:51;17.50;76.95
68578;SHT31;61668;45.388;11.784;2022-10-16T05:21:17;17.45;77.04
68578;SHT31;61668;45.388;11.784;2022-10-16T05:23:43;17.44;77.17
68578;SHT31;61668;45.388;11.784;2022-10-16T05:26:09;17.44;77.23
68578;SHT31;61668;45.388;11.784;2022-10-16T05:28:35;17.44;77.33
68578;SHT31;61668;45.388;11.784;2022-10-16T05:31:04;17.46;77.44
68578;SHT31;61668;45.388;11.784;2022-10-16T05:33:31;17.47;77.52
68578;SHT31;61668;45.388;11.784;2022-10-16T05:36:00;17.48;77.60
68578;SHT31;61668;45.388;11.784;2022-10-16T05:38:32;17.48;77.62
68578;SHT31;61668;45.388;11.784;2022-10-16T05:40:59;17.48;77.66
68578;SHT31;61668;45.388;11.784;2022-10-16T05:43:26;17.47;77.69
68578;SHT31;61668;45.388;11.784;2022-10-16T05:45:57;17.49;77.70
68578;SHT31;61668;45.388;11.784;2022-10-16T05:48:24;17.50;77.70
68578;SHT31;61668;45.388;11.784;2022-10-16T05:51:00;17.51;77.72
68578;SHT31;61668;45.388;11.784;2022-10-16T05:53:29;17.54;77.76
68578;SHT31;61668;45.388;11.784;2022-10-16T05:55:57;17.54;77.70
68578;SHT31;61668;45.388;11.784;2022-10-16T05:58:24;17.55;77.78
68578;SHT31;61668;45.388;11.784;2022-10-16T06:00:53;17.52;77.80
68578;SHT31;61668;45.388;11.784;2022-10-16T06:03:24;17.53;77.70
68578;SHT31;61668;45.388;11.784;2022-10-16T06:05:50;17.53;77.77
68578;SHT31;61668;45.388;11.784;2022-10-16T06:08:16;17.55;77.87
68578;SHT31;61668;45.388;11.784;2022-10-16T06:10:43;17.58;77.90
68578;SHT31;61668;45.388;11.784;2022-10-16T06:13:09;17.61;77.82
68578;SHT31;61668;45.388;11.784;2022-10-16T06:15:35;17.63;77.81
68578;SHT31;61668;45.388;11.784;2022-10-16T06:18:01;17.66;77.74
68578;SHT31;61668;45.388;11.784;2022-10-16T06:20:26;17.66;77.61
68578;SHT31;61668;45.388;11.784;2022-10-16T06:22:52;17.68;77.68
68578;SHT31;61668;45.388;11.784;2022-10-16T06:25:17;17.70;77.62
68578;SHT31;61668;45.388;11.784;2022-10-16T06:27:42;17.73;77.60
68578;SHT31;61668;45.388;11.784;2022-10-16T06:30:08;17.76;77.43
68578;SHT31;61668;45.388;11.784;2022-10-16T06:32:34;17.78;77.28
68578;SHT31;61668;45.388;11.784;2022-10-16T06:35:00;17.81;77.18
68578;SHT31;61668;45.388;11.784;2022-10-16T06:37:26;17.84;77.07
68578;SHT31;61668;45.388;11.784;2022-10-16T06:39:52;17.85;76.99
68578;SHT31;61668;45.388;11.784;2022-10-16T06:42:17;17.87;76.98
68578;SHT31;61668;45.388;11.784;2022-10-16T06:44:44;17.86;76.91
68578;SHT31;61668;45.388;11.784;2022-10-16T06:47:10;17.87;76.95
68578;SHT31;61668;45.388;11.784;2022-10-16T06:49:35;17.88;76.76
68578;SHT31;61668;45.388;11.784;2022-10-16T06:52:01;17.89;76.74
68578;SHT31;61668;45.388;11.784;2022-10-16T06:54:27;17.94;76.78
68578;SHT31;61668;45.388;11.784;2022-10-16T06:56:53;17.97;76.62
68578;SHT31;61668;45.388;11.784;2022-10-16T06:59:20;17.99;76.53
68578;SHT31;61668;45.388;11.784;2022-10-16T07:01:46;18.01;76.52
68578;SHT31;61668;45.388;11.784;2022-10-16T07:04:12;18.04;76.58
68578;SHT31;61668;45.388;11.784;2022-10-16T07:06:38;18.10;76.44
68578;SHT31;61668;45.388;11.784;2022-10-16T07:09:05;18.17;76.31
68578;SHT31;61668;45.388;11.784;2022-10-16T07:11:34;18.24;76.32
68578;SHT31;61668;45.388;11.784;2022-10-16T07:14:01;18.29;76.03
68578;SHT31;61668;45.388;11.784;2022-10-16T07:16:28;18.35;75.85
68578;SHT31;61668;45.388;11.784;2022-10-16T07:18:57;18.41;75.69
68578;SHT31;61668;45.388;11.784;2022-10-16T07:21:25;18.46;75.60
68578;SHT31;61668;45.388;11.784;2022-10-16T07:23:58;18.51;75.60
68578;SHT31;61668;45.388;11.784;2022-10-16T07:26:26;18.55;75.49
68578;SHT31;61668;45.388;11.784;2022-10-16T07:28:55;18.60;75.31
68578;SHT31;61668;45.388;11.784;2022-10-16T07:31:22;18.62;75.25
68578;SHT31;61668;45.388;11.784;2022-10-16T07:33:48;18.65;75.07
68578;SHT31;61668;45.388;11.784;2022-10-16T07:36:15;18.71;75.19
68578;SHT31;61668;45.388;11.784;2022-10-16T07:38:43;18.77;74.98
68578;SHT31;61668;45.388;11.784;2022-10-16T07:41:11;18.82;74.71
68578;SHT31;61668;45.388;11.784;2022-10-16T07:43:39;18.87;74.81
68578;SHT31;61668;45.388;11.784;2022-10-16T07:46:05;18.97;74.73
68578;SHT31;61668;45.388;11.784;2022-10-16T07:48:31;19.03;74.43
68578;SHT31;61668;45.388;11.784;2022-10-16T07:50:59;19.09;74.24
68578;SHT31;61668;45.388;11.784;2022-10-16T07:53:27;19.16;73.97
68578;SHT31;61668;45.388;11.784;2022-10-16T07:56:04;19.28;73.78
68578;SHT31;61668;45.388;11.784;2022-10-16T07:58:31;19.52;73.75
68578;SHT31;61668;45.388;11.784;2022-10-16T08:00:59;19.72;73.13
68578;SHT31;61668;45.388;11.784;2022-10-16T08:03:32;19.91;72.63
68578;SHT31;61668;45.388;11.784;2022-10-16T08:05:58;20.07;72.24
68578;SHT31;61668;45.388;11.784;2022-10-16T08:08:25;20.30;71.79
68578;SHT31;61668;45.388;11.784;2022-10-16T08:10:51;20.55;71.36
68578;SHT31;61668;45.388;11.784;2022-10-16T08:13:17;20.83;70.82
68578;SHT31;61668;45.388;11.784;2022-10-16T08:15:43;21.05;70.08
68578;SHT31;61668;45.388;11.784;2022-10-16T08:18:10;21.27;69.56
68578;SHT31;61668;45.388;11.784;2022-10-16T08:20:38;21.49;69.16
68578;SHT31;61668;45.388;11.784;2022-10-16T08:23:05;21.74;68.62
68578;SHT31;61668;45.388;11.784;2022-10-16T08:25:30;22.03;68.05
68578;SHT31;61668;45.388;11.784;2022-10-16T08:27:56;22.20;67.40
68578;SHT31;61668;45.388;11.784;2022-10-16T08:30:22;22.54;66.62
68578;SHT31;61668;45.388;11.784;2022-10-16T08:32:49;22.86;65.86
68578;SHT31;61668;45.388;11.784;2022-10-16T08:35:15;22.88;65.62
68578;SHT31;61668;45.388;11.784;2022-10-16T08:37:41;22.74;65.54
68578;SHT31;61668;45.388;11.784;2022-10-16T08:40:12;22.69;65.49
68578;SHT31;61668;45.388;11.784;2022-10-16T08:46:05;22.57;64.98
68578;SHT31;61668;45.388;11.784;2022-10-16T08:48:50;22.40;64.74
68578;SHT31;61668;45.388;11.784;2022-10-16T08:51:22;22.37;65.17
68578;SHT31;61668;45.388;11.784;2022-10-16T08:53:51;22.40;65.10
68578;SHT31;61668;45.388;11.784;2022-10-16T08:56:19;22.36;65.04
68578;SHT31;61668;45.388;11.784;2022-10-16T08:58:46;22.31;65.18
68578;SHT31;61668;45.388;11.784;2022-10-16T09:01:13;22.28;65.38
68578;SHT31;61668;45.388;11.784;2022-10-16T09:03:51;22.34;65.17
68578;SHT31;61668;45.388;11.784;2022-10-16T09:14:50;24.37;61.50
68578;SHT31;61668;45.388;11.784;2022-10-16T09:23:16;24.91;59.41
68578;SHT31;61668;45.388;11.784;2022-10-16T09:25:51;24.81;59.69
68578;SHT31;61668;45.388;11.784;2022-10-16T09:28:19;24.82;59.51
68578;SHT31;61668;45.388;11.784;2022-10-16T09:30:45;24.74;59.54
68578;SHT31;61668;45.388;11.784;2022-10-16T09:33:13;24.57;60.00
68578;SHT31;61668;45.388;11.784;2022-10-16T09:35:52;24.38;59.94
68578;SHT31;61668;45.388;11.784;2022-10-16T09:38:24;24.32;60.05
68578;SHT31;61668;45.388;11.784;2022-10-16T09:44:17;24.43;59.12
68578;SHT31;61668;45.388;11.784;2022-10-16T09:46:44;24.46;59.83
68578;SHT31;61668;45.388;11.784;2022-10-16T09:49:23;24.47;59.69
68578;SHT31;61668;45.388;11.784;2022-10-16T09:51:51;24.46;59.27
68578;SHT31;61668;45.388;11.784;2022-10-16T09:54:48;24.31;59.51
68578;SHT31;61668;45.388;11.784;2022-10-16T09:57:19;24.38;59.82
68578;SHT31;61668;45.388;11.784;2022-10-16T09:59:50;24.57;59.58
68578;SHT31;61668;45.388;11.784;2022-10-16T10:02:19;24.64;59.45
68578;SHT31;61668;45.388;11.784;2022-10-16T10:04:52;24.62;59.62
68578;SHT31;61668;45.388;11.784;2022-10-16T10:07:32;24.59;59.86
68578;SHT31;61668;45.388;11.784;2022-10-16T10:10:04;24.57;59.80
68578;SHT31;61668;45.388;11.784;2022-10-16T10:12:31;24.55;59.94
68578;SHT31;61668;45.388;11.784;2022-10-16T10:15:06;24.54;60.28
68578;SHT31;61668;45.388;11.784;2022-10-16T10:17:45;24.51;60.37
68578;SHT31;61668;45.388;11.784;2022-10-16T10:23:00;24.44;60.72
68578;SHT31;61668;45.388;11.784;2022-10-16T10:33:49;24.75;61.05
68578;SHT31;61668;45.388;11.784;2022-10-16T10:36:28;24.77;60.94
68578;SHT31;61668;45.388;11.784;2022-10-16T10:39:11;24.82;61.20
68578;SHT31;61668;45.388;11.784;2022-10-16T10:47:35;25.04;60.55
68578;SHT31;61668;45.388;11.784;2022-10-16T10:50:36;25.06;60.07
68578;SHT31;61668;45.388;11.784;2022-10-16T11:08:18;24.82;59.63
68578;SHT31;61668;45.388;11.784;2022-10-16T11:16:26;24.74;60.47
68578;SHT31;61668;45.388;11.784;2022-10-16T11:18:59;24.77;60.30
68578;SHT31;61668;45.388;11.784;2022-10-16T11:21:43;24.72;60.25
68578;SHT31;61668;45.388;11.784;2022-10-16T11:24:19;24.67;60.30
68578;SHT31;61668;45.388;11.784;2022-10-16T11:27:07;24.63;60.41
68578;SHT31;61668;45.388;11.784;2022-10-16T11:29:41;24.57;60.33
68578;SHT31;61668;45.388;11.784;2022-10-16T11:32:28;24.51;60.21
68578;SHT31;61668;45.388;11.784;2022-10-16T11:37:59;24.51;60.58
68578;SHT31;61668;45.388;11.784;2022-10-16T11:40:36;24.52;60.52
68578;SHT31;61668;45.388;11.784;2022-10-16T11:43:10;24.50;60.25
68578;SHT31;61668;45.388;11.784;2022-10-16T11:45:44;24.44;60.11
68578;SHT31;61668;45.388;11.784;2022-10-16T11:48:20;24.39;59.87
68578;SHT31;61668;45.388;11.784;2022-10-16T11:51:16;24.32;60.07
68578;SHT31;61668;45.388;11.784;2022-10-16T11:56:51;24.30;60.30
68578;SHT31;61668;45.388;11.784;2022-10-16T12:08:11;24.31;60.53
68578;SHT31;61668;45.388;11.784;2022-10-16T12:10:42;24.38;60.43
68578;SHT31;61668;45.388;11.784;2022-10-16T12:18:39;24.48;59.94
68578;SHT31;61668;45.388;11.784;2022-10-16T12:21:08;24.50;59.75
68578;SHT31;61668;45.388;11.784;2022-10-16T12:23:39;24.51;59.69
68578;SHT31;61668;45.388;11.784;2022-10-16T12:26:14;24.49;59.65
68578;SHT31;61668;45.388;11.784;2022-10-16T12:28:53;24.44;59.70
68578;SHT31;61668;45.388;11.784;2022-10-16T12:31:20;24.36;59.60
68578;SHT31;61668;45.388;11.784;2022-10-16T12:33:57;24.33;59.69
68578;SHT31;61668;45.388;11.784;2022-10-16T12:36:30;24.31;59.81
68578;SHT31;61668;45.388;11.784;2022-10-16T12:38:58;24.35;60.32
68578;SHT31;61668;45.388;11.784;2022-10-16T12:41:32;24.39;60.32
68578;SHT31;61668;45.388;11.784;2022-10-16T12:44:00;24.40;60.22
68578;SHT31;61668;45.388;11.784;2022-10-16T12:51:53;24.48;59.96
68578;SHT31;61668;45.388;11.784;2022-10-16T12:59:55;24.45;59.50
68578;SHT31;61668;45.388;11.784;2022-10-16T13:05:20;24.44;59.65
68578;SHT31;61668;45.388;11.784;2022-10-16T13:14:03;24.48;59.80
68578;SHT31;61668;45.388;11.784;2022-10-16T13:23:12;24.54;59.26
68578;SHT31;61668;45.388;11.784;2022-10-16T13:25:57;24.54;59.50
68578;SHT31;61668;45.388;11.784;2022-10-16T13:28:32;24.53;59.14
68578;SHT31;61668;45.388;11.784;2022-10-16T13:31:00;24.55;59.40
68578;SHT31;61668;45.388;11.784;2022-10-16T13:33:35;24.53;59.02
68578;SHT31;61668;45.388;11.784;2022-10-16T13:36:03;24.48;59.26
68578;SHT31;61668;45.388;11.784;2022-10-16T13:38:31;24.44;59.25
68578;SHT31;61668;45.388;11.784;2022-10-16T13:41:03;24.41;59.71
68578;SHT31;61668;45.388;11.784;2022-10-16T13:43:47;24.38;59.45
68578;SHT31;61668;45.388;11.784;2022-10-16T13:46:26;24.34;59.92
68578;SHT31;61668;45.388;11.784;2022-10-16T13:49:01;24.31;60.04
68578;SHT31;61668;45.388;11.784;2022-10-16T13:51:38;24.28;60.10
68578;SHT31;61668;45.388;11.784;2022-10-16T13:54:03;24.26;59.91
68578;SHT31;61668;45.388;11.784;2022-10-16T13:56:29;24.21;59.90
68578;SHT31;61668;45.388;11.784;2022-10-16T13:59:02;24.17;59.92
68578;SHT31;61668;45.388;11.784;2022-10-16T14:01:35;24.15;59.87
68578;SHT31;61668;45.388;11.784;2022-10-16T14:04:08;24.13;60.31
68578;SHT31;61668;45.388;11.784;2022-10-16T14:06:36;24.11;60.26
68578;SHT31;61668;45.388;11.784;2022-10-16T14:09:07;24.08;60.18
68578;SHT31;61668;45.388;11.784;2022-10-16T14:11:50;24.04;60.35
68578;SHT31;61668;45.388;11.784;2022-10-16T14:14:42;23.99;60.48
68578;SHT31;61668;45.388;11.784;2022-10-16T14:17:24;23.92;60.48
68578;SHT31;61668;45.388;11.784;2022-10-16T14:19:59;23.84;60.61
68578;SHT31;61668;45.388;11.784;2022-10-16T14:22:30;23.78;60.69
68578;SHT31;61668;45.388;11.784;2022-10-16T14:25:24;23.75;60.83
68578;SHT31;61668;45.388;11.784;2022-10-16T14:33:30;23.61;61.20
68578;SHT31;61668;45.388;11.784;2022-10-16T14:36:13;23.60;61.13
68578;SHT31;61668;45.388;11.784;2022-10-16T14:38:48;23.59;61.33
68578;SHT31;61668;45.388;11.784;2022-10-16T14:41:22;23.57;61.44
68578;SHT31;61668;45.388;11.784;2022-10-16T14:43:51;23.52;61.42
68578;SHT31;61668;45.388;11.784;2022-10-16T14:46:28;23.45;61.56
68578;SHT31;61668;45.388;11.784;2022-10-16T14:51:34;23.33;61.83
68578;SHT31;61668;45.388;11.784;2022-10-16T14:54:07;23.26;61.93
68578;SHT31;61668;45.388;11.784;2022-10-16T14:56:45;23.19;62.22
68578;SHT31;61668;45.388;11.784;2022-10-16T14:59:16;23.11;62.41
68578;SHT31;61668;45.388;11.784;2022-10-16T15:01:55;23.04;62.64
68578;SHT31;61668;45.388;11.784;2022-10-16T15:04:21;22.96;62.96
68578;SHT31;61668;45.388;11.784;2022-10-16T15:06:47;22.92;63.17
68578;SHT31;61668;45.388;11.784;2022-10-16T15:09:12;22.88;63.39
68578;SHT31;61668;45.388;11.784;2022-10-16T15:11:38;22.86;63.49
68578;SHT31;61668;45.388;11.784;2022-10-16T15:14:04;22.84;63.64
68578;SHT31;61668;45.388;11.784;2022-10-16T15:16:30;22.80;63.74
68578;SHT31;61668;45.388;11.784;2022-10-16T15:18:58;22.77;63.87
68578;SHT31;61668;45.388;11.784;2022-10-16T15:21:27;22.72;63.98
68578;SHT31;61668;45.388;11.784;2022-10-16T15:23:55;22.68;64.09
68578;SHT31;61668;45.388;11.784;2022-10-16T15:26:23;22.64;64.30
68578;SHT31;61668;45.388;11.784;2022-10-16T15:28:51;22.59;64.50
68578;SHT31;61668;45.388;11.784;2022-10-16T15:31:17;22.56;64.64
68578;SHT31;61668;45.388;11.784;2022-10-16T15:33:43;22.52;64.85
68578;SHT31;61668;45.388;11.784;2022-10-16T15:36:12;22.48;65.01
68578;SHT31;61668;45.388;11.784;2022-10-16T15:38:38;22.46;65.21
68578;SHT31;61668;45.388;11.784;2022-10-16T15:41:04;22.45;65.54
68578;SHT31;61668;45.388;11.784;2022-10-16T15:43:30;22.41;65.96
68578;SHT31;61668;45.388;11.784;2022-10-16T15:46:05;22.36;66.37
68578;SHT31;61668;45.388;11.784;2022-10-16T15:48:35;22.30;66.75
68578;SHT31;61668;45.388;11.784;2022-10-16T15:51:05;22.23;67.03
68578;SHT31;61668;45.388;11.784;2022-10-16T15:53:33;22.17;67.31
68578;SHT31;61668;45.388;11.784;2022-10-16T15:56:06;22.10;67.58
68578;SHT31;61668;45.388;11.784;2022-10-16T15:58:33;22.03;67.90
68578;SHT31;61668;45.388;11.784;2022-10-16T16:00:59;21.98;68.16
68578;SHT31;61668;45.388;11.784;2022-10-16T16:03:27;21.94;68.37
68578;SHT31;61668;45.388;11.784;2022-10-16T16:05:53;21.92;68.62
68578;SHT31;61668;45.388;11.784;2022-10-16T16:08:19;21.89;68.78
68578;SHT31;61668;45.388;11.784;2022-10-16T16:10:45;21.85;69.00
68578;SHT31;61668;45.388;11.784;2022-10-16T16:13:34;21.79;69.26
68578;SHT31;61668;45.388;11.784;2022-10-16T16:16:05;21.73;69.52
68578;SHT31;61668;45.388;11.784;2022-10-16T16:18:33;21.67;69.71
68578;SHT31;61668;45.388;11.784;2022-10-16T16:20:58;21.59;69.96
68578;SHT31;61668;45.388;11.784;2022-10-16T16:23:24;21.54;70.20
68578;SHT31;61668;45.388;11.784;2022-10-16T16:29:00;21.47;70.52
68578;SHT31;61668;45.388;11.784;2022-10-16T16:31:26;21.44;70.65
68578;SHT31;61668;45.388;11.784;2022-10-16T16:33:53;21.41;70.77
68578;SHT31;61668;45.388;11.784;2022-10-16T16:36:19;21.38;70.94
68578;SHT31;61668;45.388;11.784;2022-10-16T16:38:45;21.35;71.12
68578;SHT31;61668;45.388;11.784;2022-10-16T16:41:15;21.29;71.22
68578;SHT31;61668;45.388;11.784;2022-10-16T16:43:47;21.25;71.37
68578;SHT31;61668;45.388;11.784;2022-10-16T16:46:13;21.19;71.48
68578;SHT31;61668;45.388;11.784;2022-10-16T16:48:40;21.14;71.54
68578;SHT31;61668;45.388;11.784;2022-10-16T16:51:07;21.11;71.72
68578;SHT31;61668;45.388;11.784;2022-10-16T16:53:44;21.07;71.87
68578;SHT31;61668;45.388;11.784;2022-10-16T16:56:12;21.06;72.00
68578;SHT31;61668;45.388;11.784;2022-10-16T16:58:38;21.01;72.13
68578;SHT31;61668;45.388;11.784;2022-10-16T17:01:05;20.97;72.18
68578;SHT31;61668;45.388;11.784;2022-10-16T17:03:32;20.92;72.31
68578;SHT31;61668;45.388;11.784;2022-10-16T17:06:06;20.86;72.41
68578;SHT31;61668;45.388;11.784;2022-10-16T17:08:34;20.78;72.53
68578;SHT31;61668;45.388;11.784;2022-10-16T17:11:00;20.71;72.60
68578;SHT31;61668;45.388;11.784;2022-10-16T17:13:28;20.63;72.67
68578;SHT31;61668;45.388;11.784;2022-10-16T17:15:59;20.55;72.83
68578;SHT31;61668;45.388;11.784;2022-10-16T17:18:25;20.50;73.04
68578;SHT31;61668;45.388;11.784;2022-10-16T17:20:51;20.47;73.17
68578;SHT31;61668;45.388;11.784;2022-10-16T17:23:17;20.44;73.33
68578;SHT31;61668;45.388;11.784;2022-10-16T17:25:44;20.43;73.53
68578;SHT31;61668;45.388;11.784;2022-10-16T17:28:11;20.40;73.50
68578;SHT31;61668;45.388;11.784;2022-10-16T17:30:39;20.37;73.59
68578;SHT31;61668;45.388;11.784;2022-10-16T17:33:07;20.32;73.69
68578;SHT31;61668;45.388;11.784;2022-10-16T17:35:37;20.26;73.92
68578;SHT31;61668;45.388;11.784;2022-10-16T17:38:11;20.21;74.07
68578;SHT31;61668;45.388;11.784;2022-10-16T17:40:38;20.16;74.09
68578;SHT31;61668;45.388;11.784;2022-10-16T17:43:04;20.11;74.23
68578;SHT31;61668;45.388;11.784;2022-10-16T17:45:31;20.07;74.33
68578;SHT31;61668;45.388;11.784;2022-10-16T17:48:00;20.01;74.42